Time;durP1;ratioP1;P1;durP2;ratioP2;P2;SDS_P1;SDS_P2;PMS_P1;PMS_P2;Temp;Humidity;BMP_temperature;BMP_pressure;BME280_temperature;BME280_humidity;BME280_pressure;Samples;Min_cycle;Max_cycle;Signal;HPM_P1;HPM_P2
2022/11/13 00:03:23;;;;;;;32.70;21.62;;;;;;;11.26;100.00;101814.38;2859047;80;21049;-58
2022/11/13 00:07:39;;;;;;;37.78;23.18;;;;;;;11.19;100.00;101806.34;2977196;78;21019;-58
2022/11/13 00:11:40;;;;;;;32.45;23.10;;;;;;;11.15;100.00;101795.50;2995734;77;21089;-59
2022/11/13 00:15:42;;;;;;;34.85;22.22;;;;;;;11.03;100.00;101800.26;2944243;78;21044;-58
2022/11/13 00:19:43;;;;;;;42.78;25.77;;;;;;;10.97;100.00;101802.80;3028587;77;21053;-59
2022/11/13 00:23:45;;;;;;;28.98;20.72;;;;;;;10.89;100.00;101816.56;2990937;77;20969;-59
2022/11/13 00:27:46;;;;;;;32.20;21.20;;;;;;;10.85;100.00;101811.05;2995634;78;20996;-59
2022/11/13 00:31:55;;;;;;;36.20;27.00;;;;;;;10.84;100.00;101801.34;2887088;80;21029;-58
2022/11/13 00:36:16;;;;;;;27.32;20.70;;;;;;;10.84;100.00;101796.02;3002516;78;20991;-58
2022/11/13 00:40:18;;;;;;;28.65;19.25;;;;;;;10.85;100.00;101797.73;2911896;80;21002;-58
2022/11/13 00:44:19;;;;;;;21.07;16.87;;;;;;;10.85;100.00;101789.75;2898703;80;20995;-59
2022/11/13 00:48:21;;;;;;;25.97;18.42;;;;;;;10.81;100.00;101792.22;2900631;80;20974;-59
2022/11/13 00:52:22;;;;;;;18.77;14.80;;;;;;;10.75;100.00;101795.21;2944193;80;21098;-61
2022/11/13 00:56:23;;;;;;;20.05;15.03;;;;;;;10.70;100.00;101796.34;2946123;78;20936;-61
2022/11/13 01:00:25;;;;;;;23.22;17.23;;;;;;;10.71;100.00;101788.75;2954856;80;20967;-59
2022/11/13 01:04:34;;;;;;;24.50;17.52;;;;;;;10.66;100.00;101793.95;2969235;77;21013;-59
2022/11/13 01:08:36;;;;;;;25.90;17.50;;;;;;;10.67;100.00;101789.87;2923969;79;21066;-59
2022/11/13 01:12:37;;;;;;;22.98;17.52;;;;;;;10.71;100.00;101778.09;2948659;79;20989;-59
2022/11/13 01:16:38;;;;;;;32.20;20.30;;;;;;;10.75;100.00;101772.13;2896185;78;20980;-61
2022/11/13 01:20:40;;;;;;;31.62;19.77;;;;;;;10.73;100.00;101762.52;2939678;79;21028;-60
2022/11/13 01:24:41;;;;;;;25.75;18.77;;;;;;;10.75;100.00;101765.94;2952841;78;20924;-59
2022/11/13 01:28:43;;;;;;;30.32;20.12;;;;;;;10.73;100.00;101748.75;2868588;80;20975;-59
2022/11/13 01:32:45;;;;;;;30.48;22.82;;;;;;;10.71;100.00;101756.81;2965729;79;21003;-58
2022/11/13 01:36:47;;;;;;;23.25;17.65;;;;;;;10.66;100.00;101755.36;2927766;80;20956;-58
2022/11/13 01:40:51;;;;;;;24.25;15.80;;;;;;;10.62;100.00;101748.51;2796075;80;20999;-59
2022/11/13 01:44:59;;;;;;;22.42;17.25;;;;;;;10.61;100.00;101747.67;2902141;80;21003;-58
2022/11/13 01:49:09;;;;;;;20.50;16.82;;;;;;;10.56;100.00;101749.72;2997166;78;20971;-59
2022/11/13 01:53:10;;;;;;;25.02;17.10;;;;;;;10.43;100.00;101735.82;2934893;80;21036;-60
2022/11/13 01:57:13;;;;;;;22.60;16.45;;;;;;;10.39;100.00;101740.88;2983386;78;20987;-59
2022/11/13 02:01:15;;;;;;;23.67;15.03;;;;;;;10.41;100.00;101720.39;2973603;78;20952;-59
2022/11/13 02:05:16;;;;;;;24.52;16.23;;;;;;;10.41;100.00;101720.39;2941934;78;20963;-61
2022/11/13 02:09:23;;;;;;;22.25;16.93;;;;;;;10.34;100.00;101717.69;2975642;78;20968;-58
2022/11/13 02:13:24;;;;;;;36.25;19.07;;;;;;;10.30;100.00;101720.15;2883187;80;21073;-60
2022/11/13 02:17:36;;;;;;;30.60;20.05;;;;;;;10.25;100.00;101717.75;2957002;77;20970;-60
2022/11/13 02:22:06;;;;;;;27.55;23.05;;;;;;;10.27;100.00;101713.69;2931468;78;21008;-58
2022/11/13 02:26:09;;;;;;;34.40;22.42;;;;;;;10.32;100.00;101706.74;2930337;80;20928;-59
2022/11/13 02:34:22;;;;;;;35.70;23.55;;;;;;;10.16;100.00;101693.03;2954938;78;20963;-59
2022/11/13 02:38:23;;;;;;;36.77;22.87;;;;;;;10.15;100.00;101686.84;2947720;79;21138;-59
2022/11/13 02:42:24;;;;;;;28.42;19.40;;;;;;;10.19;100.00;101677.35;2988752;78;21092;-59
2022/11/13 02:46:26;;;;;;;26.68;19.92;;;;;;;10.18;100.00;101682.28;2891213;78;21022;-59
2022/11/13 02:50:27;;;;;;;27.48;20.37;;;;;;;10.18;100.00;101675.18;2977932;79;21022;-59
2022/11/13 02:54:29;;;;;;;27.17;20.40;;;;;;;10.17;100.00;101677.45;2974005;78;21011;-60
2022/11/13 02:58:30;;;;;;;28.50;20.97;;;;;;;10.18;100.00;101679.62;2937550;79;21036;-59
2022/11/13 03:02:31;;;;;;;27.85;18.62;;;;;;;10.18;100.00;101680.95;2920551;80;20992;-61
2022/11/13 03:06:39;;;;;;;24.05;18.25;;;;;;;10.20;100.00;101679.94;2918254;80;21026;-59
2022/11/13 03:10:43;;;;;;;29.37;20.62;;;;;;;10.19;100.00;101680.01;2955241;78;21006;-60
2022/11/13 03:14:44;;;;;;;26.77;19.10;;;;;;;10.19;100.00;101673.36;2863066;80;21045;-58
2022/11/13 03:18:45;;;;;;;31.90;19.10;;;;;;;10.17;100.00;101668.61;2912642;79;21038;-59
2022/11/13 03:22:47;;;;;;;26.30;17.60;;;;;;;10.12;100.00;101665.75;2961365;78;21078;-59
2022/11/13 03:26:48;;;;;;;37.80;21.90;;;;;;;10.11;100.00;101653.41;2955441;78;21003;-58
2022/11/13 03:35:06;;;;;;;30.70;20.30;;;;;;;10.01;100.00;101650.87;2932076;79;20999;-60
2022/11/13 03:39:10;;;;;;;32.15;20.55;;;;;;;10.01;100.00;101644.23;2979146;77;20959;-59
2022/11/13 03:43:12;;;;;;;31.20;20.43;;;;;;;9.97;100.00;101645.36;2980627;78;21022;-59
2022/11/13 03:47:14;;;;;;;34.03;20.77;;;;;;;10.03;100.00;101650.34;2945694;80;20919;-59
2022/11/13 03:51:16;;;;;;;32.20;19.02;;;;;;;10.04;100.00;101646.74;3035264;77;21006;-59
2022/11/13 03:55:17;;;;;;;31.17;19.55;;;;;;;10.02;100.00;101651.75;2867870;80;20959;-61
2022/11/13 03:59:25;;;;;;;27.87;19.32;;;;;;;9.99;100.00;101649.66;2919949;79;21003;-61
2022/11/13 04:03:27;;;;;;;29.27;19.75;;;;;;;10.00;100.00;101633.22;2962314;78;20960;-60
2022/11/13 04:07:28;;;;;;;27.55;18.85;;;;;;;9.97;100.00;101634.27;2953894;78;21015;-60
2022/11/13 04:11:29;;;;;;;31.50;21.57;;;;;;;9.93;100.00;101643.83;2932892;79;21049;-59
2022/11/13 04:15:31;;;;;;;27.73;20.72;;;;;;;9.88;100.00;101644.09;2916465;80;21026;-59
2022/11/13 04:19:32;;;;;;;26.90;21.23;;;;;;;9.88;100.00;101639.27;2964893;78;20971;-61
2022/11/13 04:23:34;;;;;;;30.00;20.15;;;;;;;9.83;100.00;101641.72;3014982;78;21004;-59
2022/11/13 04:27:40;;;;;;;32.25;21.65;;;;;;;9.85;100.00;101641.61;2942566;79;20980;-59
2022/11/13 04:31:41;;;;;;;33.13;21.45;;;;;;;9.85;100.00;101641.16;2959429;79;21006;-58
2022/11/13 04:35:44;;;;;;;31.77;21.90;;;;;;;9.85;100.00;101647.80;2958528;78;21457;-62
2022/11/13 04:39:46;;;;;;;30.75;23.12;;;;;;;9.81;100.00;101644.06;2972994;79;21023;-57
2022/11/13 04:43:47;;;;;;;32.30;21.85;;;;;;;9.84;100.00;101642.10;2990372;78;21002;-60
2022/11/13 04:47:50;;;;;;;27.77;21.27;;;;;;;9.80;100.00;101652.98;2936097;79;20928;-60
2022/11/13 04:51:51;;;;;;;33.25;20.97;;;;;;;9.79;100.00;101654.77;2980095;78;20967;-58
2022/11/13 04:56:02;;;;;;;33.38;22.62;;;;;;;9.79;100.00;101653.44;2936846;78;21050;-59
2022/11/13 05:00:07;;;;;;;28.35;20.62;;;;;;;9.78;100.00;101653.06;2977830;78;20995;-61
2022/11/13 05:04:12;;;;;;;29.70;20.40;;;;;;;9.79;100.00;101653.44;2988867;78;20991;-58
2022/11/13 05:08:14;;;;;;;31.87;21.73;;;;;;;9.75;100.00;101653.23;2953066;78;20990;-59
2022/11/13 05:12:21;;;;;;;37.93;22.82;;;;;;;9.73;100.00;101647.16;2970554;77;21094;-62
2022/11/13 05:16:23;;;;;;;30.95;21.90;;;;;;;9.74;100.00;101653.34;2928888;80;21074;-58
2022/11/13 05:20:25;;;;;;;34.75;20.55;;;;;;;9.76;100.00;101652.30;2990902;78;21002;-59
2022/11/13 05:24:27;;;;;;;29.72;19.82;;;;;;;9.74;100.00;101654.19;2930168;79;20976;-59
2022/11/13 05:28:28;;;;;;;37.33;21.90;;;;;;;9.73;100.00;101652.47;2974604;77;21037;-58
2022/11/13 05:32:31;;;;;;;34.50;20.12;;;;;;;9.74;100.00;101656.84;2966542;79;20924;-60
2022/11/13 05:36:33;;;;;;;31.57;20.30;;;;;;;9.68;100.00;101649.22;2950425;78;21050;-62
2022/11/13 05:40:34;;;;;;;32.20;20.97;;;;;;;9.69;100.00;101651.78;3020085;78;20983;-61
2022/11/13 05:44:36;;;;;;;31.48;19.40;;;;;;;9.68;100.00;101654.54;3018337;78;20994;-59
2022/11/13 05:48:38;;;;;;;27.82;19.80;;;;;;;9.59;100.00;101647.94;2987251;77;20984;-58
2022/11/13 05:52:39;;;;;;;33.10;22.00;;;;;;;9.57;100.00;101640.53;2939951;79;21027;-60
2022/11/13 05:56:41;;;;;;;29.77;21.62;;;;;;;9.57;100.00;101642.70;2985186;76;21074;-60
2022/11/13 06:00:42;;;;;;;26.33;20.15;;;;;;;9.60;100.00;101638.16;2997513;78;21010;-60
2022/11/13 06:04:43;;;;;;;30.92;21.25;;;;;;;9.65;100.00;101638.77;2916085;80;20998;-59
2022/11/13 06:08:50;;;;;;;27.80;20.80;;;;;;;9.64;100.00;101633.08;2942804;79;21014;-60
2022/11/13 06:12:54;;;;;;;34.58;22.60;;;;;;;9.59;100.00;101629.34;2893545;80;20995;-59
2022/11/13 06:16:57;;;;;;;39.40;19.35;;;;;;;9.56;100.00;101630.84;2967251;77;20964;-59
2022/11/13 06:21:06;;;;;;;36.77;24.45;;;;;;;9.52;100.00;101638.13;2991806;77;21157;-59
2022/11/13 06:25:08;;;;;;;37.03;25.75;;;;;;;9.50;100.00;101628.52;2935684;79;21015;-61
2022/11/13 06:29:11;;;;;;;37.90;23.85;;;;;;;9.51;100.00;101627.12;2983736;77;21121;-59
2022/11/13 06:33:24;;;;;;;39.75;24.65;;;;;;;9.48;100.00;101629.95;2908640;81;20980;-60
2022/11/13 06:37:25;;;;;;;33.38;22.98;;;;;;;9.47;100.00;101620.27;2952913;78;21074;-60
2022/11/13 06:41:38;;;;;;;28.05;19.60;;;;;;;9.48;100.00;101624.64;2949316;78;20972;-59
2022/11/13 06:45:40;;;;;;;35.40;23.52;;;;;;;9.46;100.00;101621.21;2933581;77;21038;-59
2022/11/13 06:49:41;;;;;;;33.15;19.75;;;;;;;9.50;100.00;101622.75;3014894;77;21018;-59
2022/11/13 06:53:42;;;;;;;32.13;22.42;;;;;;;9.50;100.00;101621.42;2955593;78;21006;-61
2022/11/13 06:57:45;;;;;;;36.45;23.90;;;;;;;9.54;100.00;101629.59;2977134;78;20992;-62
2022/11/13 07:01:50;;;;;;;30.35;21.07;;;;;;;9.52;100.00;101619.53;2865969;80;21019;-61
2022/11/13 07:05:52;;;;;;;43.40;30.55;;;;;;;9.55;100.00;101615.86;2971336;78;21022;-60
2022/11/13 07:09:53;;;;;;;112.95;75.65;;;;;;;9.54;100.00;101620.78;2937243;78;21066;-63
2022/11/13 07:13:55;;;;;;;46.13;32.35;;;;;;;9.61;100.00;101618.16;2957144;78;21006;-62
2022/11/13 07:18:01;;;;;;;33.83;27.50;;;;;;;9.64;100.00;101617.14;2974106;78;21117;-59
2022/11/13 07:22:02;;;;;;;41.08;31.17;;;;;;;9.71;100.00;101606.53;2993832;77;20952;-59
2022/11/13 07:30:12;;;;;;;37.03;25.65;;;;;;;9.91;99.73;101608.52;3041149;77;21019;-59
2022/11/13 07:34:13;;;;;;;38.23;27.98;;;;;;;10.00;99.12;101605.30;3011344;77;21009;-60
2022/11/13 07:38:15;;;;;;;44.83;27.85;;;;;;;10.04;98.25;101601.55;2988672;78;21014;-59
2022/11/13 07:42:16;;;;;;;41.58;24.85;;;;;;;10.00;97.78;101596.00;2878674;81;22223;-59
2022/11/13 07:46:18;;;;;;;45.58;25.17;;;;;;;10.10;98.24;101598.52;2981811;78;20974;-58
2022/11/13 07:50:19;;;;;;;40.73;26.45;;;;;;;10.10;97.43;101594.98;3027859;77;20948;-59
2022/11/13 07:54:21;;;;;;;39.42;24.23;;;;;;;10.07;97.81;101589.40;2974182;78;20964;-60
2022/11/13 07:58:22;;;;;;;34.13;25.23;;;;;;;10.03;97.54;101593.19;2921834;80;21510;-60
2022/11/13 08:02:23;;;;;;;39.78;24.60;;;;;;;10.01;97.77;101592.39;2907863;80;21018;-61
2022/11/13 08:15:04;;;;;;;35.92;25.57;;;;;;;9.94;97.71;101601.69;2814813;80;21106;-94
2022/11/13 08:19:06;;;;;;;35.65;26.37;;;;;;;9.98;97.88;101608.07;2828380;81;21034;-92
2022/11/13 08:23:08;;;;;;;37.50;25.43;;;;;;;10.04;98.16;101596.23;2874197;79;21935;-93
2022/11/13 08:27:10;;;;;;;36.03;26.27;;;;;;;10.08;97.62;101589.78;2888833;80;21027;-89
2022/11/13 08:31:14;;;;;;;48.20;27.85;;;;;;;10.17;97.42;101590.17;2879690;79;21106;-92
2022/11/13 08:35:16;;;;;;;35.90;27.37;;;;;;;10.18;96.34;101591.88;2907226;79;21490;-92
2022/11/13 08:39:18;;;;;;;38.98;27.82;;;;;;;10.17;97.50;101588.84;2853002;79;21027;-94
2022/11/13 08:43:19;;;;;;;43.90;29.20;;;;;;;10.28;97.27;101597.05;2907563;78;21038;-95
2022/11/13 08:47:21;;;;;;;45.38;29.63;;;;;;;10.34;96.18;101594.50;2875962;79;21080;-93
2022/11/13 08:51:22;;;;;;;41.80;28.62;;;;;;;10.30;95.87;101600.47;2893442;79;21794;-96
2022/11/13 08:55:24;;;;;;;43.55;27.98;;;;;;;10.28;95.79;101597.88;2908952;79;21027;-92
2022/11/13 08:59:26;;;;;;;39.70;26.90;;;;;;;10.35;97.27;101595.72;2926320;78;20998;-94
2022/11/13 09:03:28;;;;;;;39.42;24.57;;;;;;;10.32;95.61;101601.23;2797420;81;21042;-96
2022/11/13 09:07:30;;;;;;;48.45;29.92;;;;;;;10.36;95.79;101609.40;2915419;79;21006;-96
2022/11/13 09:11:32;;;;;;;41.35;28.95;;;;;;;10.41;95.58;101603.35;2886263;80;20992;-95
2022/11/13 09:15:33;;;;;;;53.00;33.60;;;;;;;10.45;94.92;101607.19;2884416;76;72108;-61
2022/11/13 09:19:35;;;;;;;36.45;26.25;;;;;;;10.59;94.91;101605.02;2870120;80;21137;-60
2022/11/13 09:23:37;;;;;;;44.38;30.10;;;;;;;10.82;94.83;101607.59;2861687;81;20996;-60
2022/11/13 09:27:39;;;;;;;53.33;28.90;;;;;;;10.85;91.61;101603.41;2811765;81;20983;-60
2022/11/13 09:31:40;;;;;;;41.33;29.37;;;;;;;10.82;93.03;101607.11;2821238;81;21036;-60
2022/11/13 09:35:42;;;;;;;52.38;29.18;;;;;;;10.79;93.65;101603.77;2899566;80;21106;-61
2022/11/13 09:39:55;;;;;;;43.80;27.77;;;;;;;10.82;94.06;101610.26;2865896;81;21019;-61
2022/11/13 09:44:01;;;;;;;37.60;27.10;;;;;;;10.85;92.88;101614.06;2848247;81;20969;-60
2022/11/13 09:48:58;;;;;;;51.40;28.45;;;;;;;10.91;93.61;101616.33;2866098;82;21063;-60
2022/11/13 09:53:11;;;;;;;49.85;31.12;;;;;;;10.97;93.19;101615.94;2850414;82;21044;-60
2022/11/13 09:57:45;;;;;;;50.10;31.35;;;;;;;11.04;93.04;101608.92;2826294;82;21005;-61
2022/11/13 10:15:22;;;;;;;45.85;27.95;;;;;;;11.08;94.06;101589.13;3004783;77;21017;-61
2022/11/13 10:19:46;;;;;;;;;;;;;;;11.14;93.29;101582.07;3002297;77;20987;-63
2022/11/13 10:23:53;;;;;;;41.53;29.55;;;;;;;11.29;93.34;101582.43;3027809;76;20077;-62
2022/11/13 10:28:00;;;;;;;42.58;28.05;;;;;;;11.40;93.58;101573.74;3013257;77;21057;-61
2022/11/13 10:32:30;;;;;;;53.65;35.10;;;;;;;11.61;93.12;101566.63;3025168;77;21477;-59
2022/11/13 10:36:42;;;;;;;59.03;40.30;;;;;;;11.81;92.15;101566.66;3040433;77;21006;-60
2022/11/13 10:40:43;;;;;;;60.05;38.70;;;;;;;11.83;91.92;101559.41;3025180;76;21047;-60
2022/11/13 10:44:58;;;;;;;55.12;34.48;;;;;;;11.92;92.27;101557.06;2983516;77;21027;-60
2022/11/13 10:49:19;;;;;;;44.15;31.27;;;;;;;11.97;91.52;101557.13;2977020;77;20988;-61
2022/11/13 10:53:21;;;;;;;44.83;30.68;;;;;;;12.03;90.45;101549.23;2977154;77;20994;-59
2022/11/13 10:57:32;;;;;;;36.83;29.23;;;;;;;11.98;90.51;101549.97;3012185;76;21058;-60
2022/11/13 11:01:33;;;;;;;52.23;31.30;;;;;;;11.99;90.82;101551.22;3035827;76;20996;-59
2022/11/13 11:05:35;;;;;;;51.15;37.00;;;;;;;11.85;91.10;101552.16;3046636;77;21011;-60
2022/11/13 11:09:39;;;;;;;51.42;37.28;;;;;;;11.84;93.43;101542.91;2998794;77;21094;-60
2022/11/13 11:13:41;;;;;;;55.00;39.45;;;;;;;11.56;96.96;101543.44;3006489;75;21044;-60
2022/11/13 11:18:01;;;;;;;70.72;36.55;;;;;;;11.03;97.96;101548.63;3036867;75;20999;-59
2022/11/13 11:22:20;;;;;;;78.28;47.33;;;;;;;10.54;100.00;101551.61;3034485;77;21054;-60
2022/11/13 11:26:45;;;;;;;67.42;43.75;;;;;;;10.42;100.00;101553.22;3022569;77;21023;-60
2022/11/13 11:30:52;;;;;;;83.03;49.85;;;;;;;10.29;100.00;101549.55;3015825;77;21024;-63
2022/11/13 11:35:16;;;;;;;79.22;46.23;;;;;;;10.08;100.00;101544.58;3035956;75;20956;-60
2022/11/13 11:39:37;;;;;;;68.33;45.48;;;;;;;10.05;100.00;101539.45;3034488;75;21057;-59
2022/11/13 11:44:00;;;;;;;68.70;42.70;;;;;;;10.04;100.00;101539.08;2924590;78;20977;-62
2022/11/13 11:48:03;;;;;;;65.45;42.30;;;;;;;10.07;100.00;101538.89;2896459;77;20990;-61
2022/11/13 11:52:20;;;;;;;72.60;46.53;;;;;;;9.88;100.00;101532.95;2884937;80;22284;-58
2022/11/13 11:56:49;;;;;;;68.72;44.00;;;;;;;9.67;100.00;101524.80;2916458;79;21011;-60
2022/11/13 12:00:56;;;;;;;73.57;44.18;;;;;;;9.42;100.00;101520.05;2894625;80;21018;-57
2022/11/13 12:05:36;;;;;;;58.48;36.63;;;;;;;9.38;100.00;101511.87;2853550;80;21000;-60
2022/11/13 12:09:47;;;;;;;65.62;43.05;;;;;;;9.04;100.00;101503.16;2910719;78;21074;-59
2022/11/13 12:14:03;;;;;;;69.12;46.63;;;;;;;8.87;100.00;101495.70;2874352;80;21066;-61
2022/11/13 12:18:41;;;;;;;86.37;54.53;;;;;;;8.91;100.00;101501.67;2917681;77;21059;-60
2022/11/13 12:23:05;;;;;;;57.85;38.60;;;;;;;8.79;100.00;101507.19;2993596;77;21117;-59
2022/11/13 12:27:34;;;;;;;65.95;42.33;;;;;;;8.84;100.00;101490.53;3015799;75;20967;-58
2022/11/13 12:31:53;;;;;;;68.83;44.88;;;;;;;8.83;100.00;101494.13;2961158;77;21074;-60
2022/11/13 12:35:56;;;;;;;69.80;44.85;;;;;;;8.85;100.00;101489.62;2997708;76;21027;-62
2022/11/13 12:40:06;;;;;;;65.75;42.00;;;;;;;8.83;100.00;101487.50;3019173;75;21043;-60
2022/11/13 12:44:29;;;;;;;114.55;65.30;;;;;;;8.88;100.00;101484.59;3015496;77;21038;-60
2022/11/13 12:48:39;;;;;;;107.92;49.98;;;;;;;8.83;100.00;101483.52;3017634;76;20979;-61
2022/11/13 12:52:41;;;;;;;74.05;45.08;;;;;;;8.61;100.00;101482.05;2973630;76;21030;-58
2022/11/13 12:57:15;;;;;;;91.50;55.33;;;;;;;8.65;100.00;101480.97;3020189;75;20950;-57
2022/11/13 13:01:22;;;;;;;59.00;40.23;;;;;;;8.69;100.00;101469.69;3013471;75;21042;-59
2022/11/13 13:05:35;;;;;;;66.65;39.63;;;;;;;8.53;100.00;101464.38;3036445;77;20989;-60
2022/11/13 13:10:00;;;;;;;59.60;36.28;;;;;;;8.41;100.00;101452.13;3010849;76;21057;-59
2022/11/13 13:14:40;;;;;;;66.63;41.33;;;;;;;8.37;100.00;101461.20;2990727;77;20998;-61
2022/11/13 13:18:41;;;;;;;60.28;36.75;;;;;;;8.34;100.00;101449.89;3023707;76;21035;-59
2022/11/13 13:22:56;;;;;;;74.55;43.75;;;;;;;8.29;100.00;101446.19;3051666;77;21038;-58
2022/11/13 13:26:58;;;;;;;64.42;40.58;;;;;;;8.15;100.00;101446.45;3048180;77;20959;-59
2022/11/13 13:31:32;;;;;;;67.95;39.78;;;;;;;8.11;100.00;101442.25;3014134;77;20992;-59
2022/11/13 13:35:48;;;;;;;68.72;43.40;;;;;;;8.07;100.00;101431.89;2987066;75;20955;-61
2022/11/13 13:40:28;;;;;;;80.17;47.13;;;;;;;8.21;100.00;101427.16;3007957;76;21063;-59
2022/11/13 13:45:00;;;;;;;80.72;48.90;;;;;;;8.26;100.00;101428.64;3020702;75;20956;-63
2022/11/13 13:49:15;;;;;;;83.00;48.73;;;;;;;8.39;100.00;101429.31;3013398;76;21010;-60
2022/11/13 13:53:29;;;;;;;72.30;43.30;;;;;;;8.45;100.00;101427.64;3036829;75;20983;-60
2022/11/13 13:57:31;;;;;;;80.17;46.80;;;;;;;8.49;100.00;101430.99;2988889;76;20971;-59
2022/11/13 14:01:58;;;;;;;83.80;44.15;;;;;;;8.50;100.00;101436.71;2995467;77;20983;-62
2022/11/13 14:06:20;;;;;;;78.85;43.55;;;;;;;8.40;100.00;101433.19;3029163;77;20974;-59
2022/11/13 14:10:31;;;;;;;87.65;48.65;;;;;;;8.37;100.00;101423.23;3008075;77;20977;-58
2022/11/13 14:14:32;;;;;;;84.47;46.50;;;;;;;8.43;100.00;101432.17;2959282;78;21041;-58
2022/11/13 14:18:35;;;;;;;78.05;46.13;;;;;;;8.46;100.00;101431.16;2979329;79;21024;-59
2022/11/13 14:22:42;;;;;;;83.60;49.55;;;;;;;8.33;100.00;101425.64;2932742;79;20987;-59
2022/11/13 14:26:45;;;;;;;85.05;43.75;;;;;;;8.12;100.00;101416.13;2968520;79;21026;-58
2022/11/13 14:31:09;;;;;;;80.72;46.90;;;;;;;7.94;100.00;101427.22;2995175;79;21031;-59
2022/11/13 14:35:21;;;;;;;77.90;45.23;;;;;;;7.86;100.00;101421.03;2949377;79;20992;-58
2022/11/13 14:39:31;;;;;;;87.42;51.53;;;;;;;7.82;100.00;101415.96;2974185;79;20993;-58
2022/11/13 14:43:35;;;;;;;88.17;47.65;;;;;;;7.81;100.00;101415.58;2974275;78;20984;-60
2022/11/13 14:47:38;;;;;;;89.07;51.75;;;;;;;7.85;100.00;101420.61;2923218;79;21065;-61
2022/11/13 14:51:40;;;;;;;107.47;61.88;;;;;;;7.83;100.00;101429.11;3012070;77;20887;-59
2022/11/13 14:55:52;;;;;;;102.50;59.50;;;;;;;7.85;100.00;101428.55;2978110;77;20996;-58
2022/11/13 14:59:55;;;;;;;104.97;61.95;;;;;;;7.90;100.00;101419.05;2979681;79;20988;-59
2022/11/13 15:03:57;;;;;;;97.72;53.75;;;;;;;7.88;100.00;101420.09;2964145;77;20964;-60
2022/11/13 15:07:58;;;;;;;88.78;53.42;;;;;;;7.89;100.00;101416.50;2929959;78;21030;-58
2022/11/13 15:12:00;;;;;;;90.70;53.60;;;;;;;7.89;100.00;101415.18;2953556;77;21585;-60
2022/11/13 15:16:02;;;;;;;94.03;52.30;;;;;;;7.89;100.00;101409.87;2968948;78;21024;-59
2022/11/13 15:20:04;;;;;;;89.00;50.48;;;;;;;7.90;100.00;101404.97;2973628;77;21012;-58
2022/11/13 15:24:06;;;;;;;86.78;51.55;;;;;;;7.81;100.00;101403.66;3040823;77;20979;-55
2022/11/13 15:28:07;;;;;;;100.50;58.58;;;;;;;7.68;100.00;101396.34;3028429;77;21011;-59
2022/11/13 15:32:12;;;;;;;94.62;53.25;;;;;;;7.67;100.00;101405.70;2967296;78;20960;-59
2022/11/13 15:36:13;;;;;;;93.82;54.50;;;;;;;7.69;100.00;101400.70;3001044;77;20976;-62
2022/11/13 15:40:25;;;;;;;102.32;57.13;;;;;;;7.66;100.00;101401.31;3053054;75;21034;-59
2022/11/13 15:44:39;;;;;;;106.83;54.65;;;;;;;7.72;100.00;101391.27;3002390;75;21052;-58
2022/11/13 15:48:41;;;;;;;102.62;63.45;;;;;;;7.72;100.00;101401.02;2919002;79;20992;-59
2022/11/13 15:52:46;;;;;;;117.30;63.90;;;;;;;7.74;100.00;101392.97;2907758;80;21063;-59
2022/11/13 15:56:54;;;;;;;108.50;62.37;;;;;;;7.82;100.00;101400.91;2987531;78;21042;-58
2022/11/13 16:00:55;;;;;;;107.20;56.60;;;;;;;7.91;100.00;101395.59;3006598;77;20973;-58
2022/11/13 16:04:56;;;;;;;116.50;54.93;;;;;;;7.69;100.00;101389.27;3005252;77;21074;-59
2022/11/13 16:08:57;;;;;;;114.37;64.25;;;;;;;7.39;100.00;101386.80;3050881;76;21045;-58
2022/11/13 16:12:58;;;;;;;115.65;67.97;;;;;;;7.41;100.00;101388.02;3027928;76;20976;-58
2022/11/13 16:17:00;;;;;;;107.20;61.73;;;;;;;7.57;100.00;101386.78;3026342;77;20951;-58
2022/11/13 16:21:01;;;;;;;119.35;64.27;;;;;;;7.52;100.00;101380.84;3010002;76;20980;-58
2022/11/13 16:25:03;;;;;;;113.55;70.10;;;;;;;7.60;100.00;101386.63;3019709;76;20969;-58
2022/11/13 16:29:20;;;;;;;120.40;68.22;;;;;;;7.64;100.00;101404.52;3029467;75;21064;-58
2022/11/13 16:33:21;;;;;;;111.35;71.42;;;;;;;7.70;100.00;101392.30;2934440;77;21003;-59
2022/11/13 16:37:23;;;;;;;111.90;69.10;;;;;;;7.72;100.00;101394.40;2987411;77;20976;-58
2022/11/13 16:41:32;;;;;;;117.70;63.87;;;;;;;7.77;100.00;101404.27;2974286;78;21035;-58
2022/11/13 16:45:37;;;;;;;114.05;66.75;;;;;;;7.78;100.00;101391.42;3010367;76;20986;-59
2022/11/13 16:49:38;;;;;;;136.37;73.83;;;;;;;7.86;100.00;101387.91;3037015;75;20979;-58
2022/11/13 16:53:39;;;;;;;116.73;69.15;;;;;;;7.94;100.00;101378.69;3019107;76;20963;-59
2022/11/13 16:57:41;;;;;;;123.85;66.22;;;;;;;7.98;100.00;101371.83;3020727;77;20980;-59
2022/11/13 17:01:42;;;;;;;111.17;70.80;;;;;;;8.00;100.00;101366.43;3012455;77;22312;-58
2022/11/13 17:05:43;;;;;;;117.57;67.10;;;;;;;8.04;100.00;101369.30;3022974;76;20979;-58
2022/11/13 17:09:59;;;;;;;108.57;63.58;;;;;;;7.98;100.00;101366.98;3042253;76;20988;-59
2022/11/13 17:14:14;;;;;;;118.70;69.12;;;;;;;8.08;100.00;101356.74;3020551;76;21017;-58
2022/11/13 17:18:15;;;;;;;118.02;67.47;;;;;;;7.95;100.00;101349.93;3039792;76;20972;-59
2022/11/13 17:22:16;;;;;;;129.65;69.17;;;;;;;7.87;100.00;101345.04;2995865;78;20947;-58
2022/11/13 17:26:17;;;;;;;118.13;69.90;;;;;;;7.84;100.00;101343.40;3004458;76;20999;-60
2022/11/13 17:30:19;;;;;;;122.17;65.78;;;;;;;7.83;100.00;101335.07;2998046;76;21032;-58
2022/11/13 17:34:21;;;;;;;121.85;67.37;;;;;;;7.72;100.00;101331.67;2993704;77;23557;-58
2022/11/13 17:38:27;;;;;;;125.67;73.57;;;;;;;7.69;100.00;101332.33;3001266;77;21052;-58
2022/11/13 17:42:29;;;;;;;122.28;70.52;;;;;;;7.52;100.00;101332.73;2982866;78;21047;-58
2022/11/13 17:46:31;;;;;;;140.97;75.37;;;;;;;7.57;100.00;101332.02;3025481;77;21080;-58
2022/11/13 17:50:39;;;;;;;133.20;74.75;;;;;;;7.57;100.00;101324.08;3027004;77;21058;-59
2022/11/13 17:54:40;;;;;;;132.07;73.22;;;;;;;7.66;100.00;101322.73;3029906;75;20972;-58
2022/11/13 17:58:46;;;;;;;117.55;69.20;;;;;;;7.67;100.00;101324.93;2951077;78;21015;-59
2022/11/13 18:02:48;;;;;;;123.85;69.20;;;;;;;7.69;100.00;101311.13;3020918;75;20975;-59
2022/11/13 18:06:49;;;;;;;119.72;72.53;;;;;;;7.60;100.00;101307.63;3009777;77;21012;-59
2022/11/13 18:10:50;;;;;;;107.78;67.60;;;;;;;7.56;100.00;101312.23;3012659;76;21003;-58
2022/11/13 18:15:02;;;;;;;120.97;73.02;;;;;;;7.36;100.00;101313.29;2993531;77;21081;-58
2022/11/13 18:19:05;;;;;;;112.55;69.60;;;;;;;7.46;100.00;101303.08;3038460;74;20965;-59
2022/11/13 18:23:07;;;;;;;111.75;69.58;;;;;;;7.33;100.00;101300.22;3024588;76;21088;-58
2022/11/13 18:27:09;;;;;;;109.27;71.28;;;;;;;7.32;100.00;101295.86;3023145;76;20968;-58
2022/11/13 18:31:18;;;;;;;123.40;66.87;;;;;;;7.39;100.00;101293.27;3066534;75;21023;-58
2022/11/13 18:35:25;;;;;;;114.17;69.42;;;;;;;7.42;100.00;101297.08;2971188;75;20948;-59
2022/11/13 18:39:26;;;;;;;;;;;;;;;7.45;100.00;101303.53;3053499;76;20944;-58
2022/11/13 18:43:33;;;;;;;115.28;66.53;;;;;;;7.42;100.00;101301.05;3042574;75;20076;-58
2022/11/13 18:47:34;;;;;;;110.80;70.70;;;;;;;7.35;100.00;101305.80;3051872;75;20928;-59
2022/11/13 18:51:38;;;;;;;101.30;65.35;;;;;;;7.39;100.00;101301.21;2970825;76;20983;-58
2022/11/13 18:55:39;;;;;;;101.80;68.33;;;;;;;7.39;100.00;101294.59;3029434;77;20987;-59
2022/11/13 18:59:40;;;;;;;112.55;68.60;;;;;;;7.40;100.00;101299.82;2996785;77;20963;-58
2022/11/13 19:03:45;;;;;;;108.87;66.20;;;;;;;7.41;100.00;101291.39;3053447;76;20933;-59
2022/11/13 19:07:53;;;;;;;103.93;67.60;;;;;;;7.37;100.00;101297.80;3022543;76;21014;-60
2022/11/13 19:11:55;;;;;;;100.55;62.40;;;;;;;7.36;100.00;101286.82;3042041;76;21000;-58